Time;durP1;ratioP1;P1;durP2;ratioP2;P2;SDS_P1;SDS_P2;PMS_P1;PMS_P2;Temp;Humidity;BMP_temperature;BMP_pressure;BME280_temperature;BME280_humidity;BME280_pressure;Samples;Min_cycle;Max_cycle;Signal;HPM_P1;HPM_P2
2023/12/28 00:00:07;;;;;;;4.67;4.23;;;8.20;99.90;;;;;;5096195;28;20443;-76
2023/12/28 00:02:35;;;;;;;4.97;4.43;;;8.20;99.90;;;;;;5095842;28;20519;-77
2023/12/28 00:05:04;;;;;;;5.80;4.40;;;8.20;99.90;;;;;;5094499;28;20980;-76
2023/12/28 00:07:33;;;;;;;5.43;3.80;;;8.20;99.90;;;;;;5095895;28;20800;-76
2023/12/28 00:10:03;;;;;;;6.43;4.50;;;8.20;99.90;;;;;;5095740;28;20447;-77
2023/12/28 00:12:31;;;;;;;4.50;4.00;;;8.20;99.90;;;;;;5095699;28;20425;-76
2023/12/28 00:15:00;;;;;;;7.20;3.97;;;8.20;99.90;;;;;;5096314;28;20480;-76
2023/12/28 00:17:28;;;;;;;4.97;4.17;;;8.20;99.90;;;;;;5094541;28;21011;-76
2023/12/28 00:19:56;;;;;;;4.83;4.00;;;8.20;99.90;;;;;;5095825;28;20913;-76
2023/12/28 00:22:25;;;;;;;4.30;3.50;;;8.20;99.90;;;;;;5094594;28;20535;-77
2023/12/28 00:24:53;;;;;;;4.03;3.60;;;8.20;99.90;;;;;;5095880;28;20471;-77
2023/12/28 00:27:23;;;;;;;5.83;4.20;;;8.20;99.90;;;;;;5095530;28;20486;-77
2023/12/28 00:29:51;;;;;;;6.63;4.20;;;8.20;99.90;;;;;;5094262;28;20799;-77
2023/12/28 00:32:19;;;;;;;4.40;3.97;;;8.20;99.90;;;;;;5094449;28;20480;-76
2023/12/28 00:34:48;;;;;;;5.93;4.30;;;8.30;99.90;;;;;;5095868;28;20432;-77
2023/12/28 00:37:16;;;;;;;5.33;4.00;;;8.30;99.90;;;;;;5096049;28;20543;-77
2023/12/28 00:39:46;;;;;;;4.37;3.97;;;8.30;99.90;;;;;;5094127;28;20479;-76
2023/12/28 00:42:15;;;;;;;4.87;3.80;;;8.30;99.90;;;;;;5094462;28;20540;-77
2023/12/28 00:44:45;;;;;;;4.50;4.07;;;8.30;99.90;;;;;;5094883;28;20436;-76
2023/12/28 00:47:13;;;;;;;4.70;4.00;;;8.30;99.90;;;;;;5093335;28;20479;-76
2023/12/28 00:49:41;;;;;;;4.20;3.63;;;8.30;99.90;;;;;;5094916;28;20465;-76
2023/12/28 00:52:10;;;;;;;3.97;3.57;;;8.30;99.90;;;;;;5094814;28;20542;-76
2023/12/28 00:54:38;;;;;;;3.90;3.60;;;8.30;99.90;;;;;;5093633;28;20450;-76
2023/12/28 00:57:06;;;;;;;5.03;4.07;;;8.30;99.90;;;;;;5093508;28;20847;-76
2023/12/28 00:59:35;;;;;;;4.60;3.53;;;8.30;99.90;;;;;;5093403;28;20867;-76
2023/12/28 01:02:05;;;;;;;4.73;3.90;;;8.30;99.90;;;;;;5093357;28;20470;-76
2023/12/28 01:04:33;;;;;;;4.10;3.70;;;8.30;99.90;;;;;;5094105;28;20995;-76
2023/12/28 01:07:05;;;;;;;5.70;3.80;;;8.30;99.90;;;;;;5093229;28;20558;-76
2023/12/28 01:09:34;;;;;;;4.00;3.70;;;8.40;99.90;;;;;;5093308;28;20444;-76
2023/12/28 01:12:05;;;;;;;3.73;3.37;;;8.40;99.90;;;;;;5093144;28;20834;-76
2023/12/28 01:14:33;;;;;;;5.37;4.33;;;8.40;99.90;;;;;;5093104;28;20898;-76
2023/12/28 01:17:04;;;;;;;4.33;3.67;;;8.40;99.90;;;;;;5093368;28;20464;-76
2023/12/28 01:19:32;;;;;;;3.90;3.43;;;8.40;99.90;;;;;;5093060;28;20480;-77
2023/12/28 01:22:00;;;;;;;4.80;3.60;;;8.40;99.90;;;;;;5092920;28;20444;-76
2023/12/28 01:24:29;;;;;;;3.80;3.50;;;8.40;99.90;;;;;;5092914;28;20448;-76
2023/12/28 01:26:57;;;;;;;4.83;3.60;;;8.50;99.90;;;;;;5094025;28;21037;-77
2023/12/28 01:29:26;;;;;;;3.80;3.20;;;8.50;99.90;;;;;;5092999;28;20445;-75
2023/12/28 01:31:54;;;;;;;4.23;3.70;;;8.50;99.90;;;;;;5093249;28;20480;-77
2023/12/28 01:34:24;;;;;;;4.30;3.97;;;8.50;99.90;;;;;;5094975;28;20946;-77
2023/12/28 01:36:52;;;;;;;4.90;4.07;;;8.50;99.90;;;;;;5093834;28;20468;-77
2023/12/28 01:39:20;;;;;;;5.40;3.57;;;8.60;99.90;;;;;;5093883;28;20444;-77
2023/12/28 01:41:49;;;;;;;3.80;3.20;;;8.60;99.90;;;;;;5093520;28;20448;-77
2023/12/28 01:44:17;;;;;;;4.33;3.93;;;8.60;99.90;;;;;;5094323;28;20471;-78
2023/12/28 01:46:47;;;;;;;4.37;3.40;;;8.60;99.90;;;;;;5092527;28;20484;-76
2023/12/28 01:49:15;;;;;;;3.90;3.43;;;8.60;99.90;;;;;;5093139;28;20449;-76
2023/12/28 01:51:46;;;;;;;4.67;4.00;;;8.60;99.90;;;;;;5092729;28;20444;-76
2023/12/28 01:54:15;;;;;;;4.47;4.00;;;8.60;99.90;;;;;;5093515;28;20450;-77
2023/12/28 01:56:44;;;;;;;5.03;4.40;;;8.60;99.90;;;;;;5094396;28;20460;-76
2023/12/28 01:59:12;;;;;;;6.47;4.23;;;8.60;99.90;;;;;;5093716;28;20482;-78
2023/12/28 02:01:40;;;;;;;4.13;3.57;;;8.70;99.90;;;;;;5093384;28;20910;-78
2023/12/28 02:04:09;;;;;;;4.73;4.20;;;8.60;99.90;;;;;;5094069;28;20807;-78
2023/12/28 02:06:38;;;;;;;4.40;3.70;;;8.70;99.90;;;;;;5093109;28;20479;-77
2023/12/28 02:09:08;;;;;;;4.63;3.83;;;8.70;99.90;;;;;;5095466;28;20445;-76
2023/12/28 02:11:36;;;;;;;6.67;3.80;;;8.70;99.90;;;;;;5093102;28;20444;-75
2023/12/28 02:14:04;;;;;;;4.00;3.60;;;8.70;99.90;;;;;;5092607;28;20967;-77
2023/12/28 02:16:37;;;;;;;4.60;4.00;;;8.70;99.90;;;;;;5091743;28;20555;-77
2023/12/28 02:19:21;;;;;;;4.70;4.20;;;8.80;99.90;;;;;;5092491;28;20520;-77
2023/12/28 02:21:50;;;;;;;4.10;3.70;;;8.70;99.90;;;;;;5092540;28;20793;-77
2023/12/28 02:24:20;;;;;;;4.40;4.07;;;8.70;99.90;;;;;;5093679;28;20436;-77
2023/12/28 02:26:49;;;;;;;4.90;4.07;;;8.70;99.90;;;;;;5092204;28;20554;-77
2023/12/28 02:29:20;;;;;;;4.80;4.00;;;8.70;99.90;;;;;;5092708;28;20517;-77
2023/12/28 02:31:58;;;;;;;4.47;3.70;;;8.70;99.90;;;;;;5092992;28;20433;-77
2023/12/28 02:34:31;;;;;;;5.00;3.97;;;8.70;99.90;;;;;;5093304;28;20808;-78
2023/12/28 02:37:01;;;;;;;6.40;4.40;;;8.70;99.90;;;;;;5093544;28;20471;-79
2023/12/28 02:39:30;;;;;;;4.47;4.07;;;8.70;99.90;;;;;;5093287;28;20448;-77
2023/12/28 02:42:00;;;;;;;5.60;4.30;;;8.70;99.90;;;;;;5093970;28;20444;-76
2023/12/28 02:44:29;;;;;;;6.73;4.40;;;8.70;99.90;;;;;;5093393;28;20452;-77
2023/12/28 02:46:57;;;;;;;5.07;4.10;;;8.70;99.90;;;;;;5094224;28;20476;-78
2023/12/28 02:49:26;;;;;;;7.53;4.27;;;8.70;99.90;;;;;;5093073;28;20440;-78
2023/12/28 02:51:55;;;;;;;4.83;4.33;;;8.70;99.90;;;;;;5092972;28;20535;-77
2023/12/28 02:54:23;;;;;;;4.73;4.33;;;8.70;99.90;;;;;;5093319;28;20456;-78
2023/12/28 02:56:51;;;;;;;5.20;4.30;;;8.70;99.90;;;;;;5093358;28;20830;-77
2023/12/28 02:59:21;;;;;;;4.63;4.13;;;8.70;99.90;;;;;;5092386;28;20521;-78
2023/12/28 03:01:49;;;;;;;4.93;4.43;;;8.80;99.90;;;;;;5092325;28;20440;-78
2023/12/28 03:04:20;;;;;;;4.40;4.00;;;8.80;99.90;;;;;;5093752;28;20444;-77
2023/12/28 03:06:49;;;;;;;6.00;4.30;;;8.70;99.90;;;;;;5092219;28;20479;-77
2023/12/28 03:09:19;;;;;;;5.50;4.60;;;8.80;99.90;;;;;;5092223;28;20443;-78
2023/12/28 03:11:47;;;;;;;5.10;4.60;;;8.80;99.90;;;;;;5092355;28;20813;-77
2023/12/28 03:14:16;;;;;;;4.67;4.23;;;8.70;99.90;;;;;;5092715;28;20444;-77
2023/12/28 03:16:46;;;;;;;4.43;3.80;;;8.80;99.90;;;;;;5093064;28;20871;-77
2023/12/28 03:19:14;;;;;;;4.23;3.83;;;8.80;99.90;;;;;;5092362;28;20440;-78
2023/12/28 03:21:43;;;;;;;4.70;4.30;;;8.80;99.90;;;;;;5093127;28;20859;-77
2023/12/28 03:24:11;;;;;;;4.93;4.43;;;8.80;99.90;;;;;;5092906;28;20780;-77
2023/12/28 03:26:40;;;;;;;4.30;3.90;;;8.80;99.90;;;;;;5093972;28;20468;-77
2023/12/28 03:29:09;;;;;;;5.73;4.70;;;8.80;99.90;;;;;;5096220;28;20530;-77
2023/12/28 03:31:40;;;;;;;4.93;4.43;;;8.80;99.90;;;;;;5095968;28;20440;-77
2023/12/28 03:34:10;;;;;;;5.37;4.43;;;8.80;99.90;;;;;;5096657;28;21035;-77
2023/12/28 03:36:38;;;;;;;4.60;4.10;;;8.80;99.90;;;;;;5101026;28;20464;-78
2023/12/28 03:39:07;;;;;;;6.07;4.03;;;8.80;99.90;;;;;;5102840;28;20436;-78
2023/12/28 03:41:35;;;;;;;5.30;4.80;;;8.80;99.90;;;;;;5103017;28;20436;-77
2023/12/28 03:44:04;;;;;;;4.60;4.20;;;8.80;99.90;;;;;;5102891;28;20449;-77
2023/12/28 03:46:31;;;;;;;6.27;4.80;;;8.80;99.90;;;;;;5102683;28;20988;-78
2023/12/28 03:48:59;;;;;;;5.60;4.93;;;8.80;99.90;;;;;;5103892;28;20519;-77
2023/12/28 03:51:29;;;;;;;5.60;4.40;;;8.80;99.90;;;;;;5096775;28;20521;-77
2023/12/28 03:53:57;;;;;;;5.67;4.60;;;8.80;99.90;;;;;;5096785;28;20443;-77
2023/12/28 03:56:27;;;;;;;4.47;4.07;;;8.80;99.90;;;;;;5096735;28;20482;-77
2023/12/28 03:58:56;;;;;;;5.30;4.30;;;8.80;99.90;;;;;;5096426;28;20498;-75
2023/12/28 04:01:24;;;;;;;6.50;4.90;;;8.80;99.90;;;;;;5097999;28;20443;-78
2023/12/28 04:03:52;;;;;;;4.73;4.33;;;8.80;99.90;;;;;;5097128;28;20456;-77
2023/12/28 04:06:21;;;;;;;4.90;4.50;;;8.80;99.90;;;;;;5102567;28;20456;-78
2023/12/28 04:08:51;;;;;;;5.90;4.67;;;8.80;99.90;;;;;;5102328;28;20492;-78
2023/12/28 04:11:19;;;;;;;5.30;4.80;;;8.80;99.90;;;;;;5102637;28;20517;-77
2023/12/28 04:13:47;;;;;;;5.10;4.60;;;8.80;99.90;;;;;;5101635;28;20448;-77
2023/12/28 04:16:16;;;;;;;5.13;4.63;;;8.80;99.90;;;;;;5099836;28;20539;-78
2023/12/28 04:18:44;;;;;;;5.60;5.00;;;8.80;99.90;;;;;;5099964;28;20448;-78
2023/12/28 04:21:13;;;;;;;6.80;5.17;;;8.80;99.90;;;;;;5102270;28;20440;-78
2023/12/28 04:23:42;;;;;;;5.53;4.73;;;8.80;99.90;;;;;;5101935;28;20494;-78
2023/12/28 04:26:12;;;;;;;5.73;5.20;;;8.80;99.90;;;;;;5100989;28;20439;-77
2023/12/28 04:28:40;;;;;;;7.10;4.80;;;8.80;99.90;;;;;;5103464;28;20464;-78
2023/12/28 04:31:09;;;;;;;5.43;4.93;;;8.80;99.90;;;;;;5101983;28;20451;-76
2023/12/28 04:33:37;;;;;;;6.07;4.80;;;8.80;99.90;;;;;;5102103;28;20436;-78
2023/12/28 04:36:06;;;;;;;5.37;4.87;;;8.90;99.90;;;;;;5101444;28;20532;-77
2023/12/28 04:38:35;;;;;;;5.53;4.30;;;8.90;99.90;;;;;;5101272;28;20440;-78
2023/12/28 04:41:04;;;;;;;6.50;4.50;;;8.90;99.90;;;;;;5101661;28;20476;-78
2023/12/28 04:43:33;;;;;;;6.43;5.00;;;8.90;99.90;;;;;;5100320;28;20444;-78
2023/12/28 04:46:04;;;;;;;7.80;5.13;;;8.90;99.90;;;;;;5096616;28;20544;-77
2023/12/28 04:48:33;;;;;;;5.73;5.13;;;8.90;99.90;;;;;;5099035;28;20464;-77
2023/12/28 04:51:03;;;;;;;6.13;4.40;;;8.90;99.90;;;;;;5100938;28;20949;-77
2023/12/28 04:53:33;;;;;;;6.53;5.57;;;8.90;99.90;;;;;;5101356;28;20437;-77
2023/12/28 04:56:02;;;;;;;4.70;4.30;;;8.90;99.90;;;;;;5099404;28;20459;-77
2023/12/28 04:58:30;;;;;;;5.43;4.60;;;8.90;99.90;;;;;;5098224;28;20452;-78
2023/12/28 05:01:02;;;;;;;5.23;4.73;;;8.90;99.90;;;;;;5097843;28;20441;-77
2023/12/28 05:03:30;;;;;;;7.00;4.20;;;8.90;99.90;;;;;;5098337;28;20445;-77
2023/12/28 05:05:59;;;;;;;5.27;4.27;;;8.90;99.90;;;;;;5098511;28;20872;-77
2023/12/28 05:08:27;;;;;;;5.53;5.00;;;8.90;99.90;;;;;;5099567;28;20468;-78
2023/12/28 05:10:55;;;;;;;5.60;4.97;;;8.80;99.90;;;;;;5098373;28;20448;-77
2023/12/28 05:13:24;;;;;;;6.10;4.70;;;8.90;99.90;;;;;;5096716;28;20547;-79
2023/12/28 05:15:52;;;;;;;7.17;4.10;;;8.90;99.90;;;;;;5094533;28;20448;-78
2023/12/28 05:18:22;;;;;;;4.97;4.47;;;8.90;99.90;;;;;;5094806;28;20501;-78
2023/12/28 05:20:50;;;;;;;5.90;4.90;;;8.80;99.90;;;;;;5094996;28;20459;-78
2023/12/28 05:23:18;;;;;;;5.73;5.00;;;8.90;99.90;;;;;;5095865;28;20441;-78
2023/12/28 05:25:48;;;;;;;7.47;4.63;;;8.90;99.90;;;;;;5096108;28;20489;-78
2023/12/28 05:28:16;;;;;;;5.83;5.03;;;8.90;99.90;;;;;;5094555;28;20527;-78
2023/12/28 05:30:44;;;;;;;4.70;4.10;;;8.90;99.90;;;;;;5094639;28;20547;-78
2023/12/28 05:33:13;;;;;;;4.70;4.20;;;8.90;99.90;;;;;;5094163;28;20444;-78
2023/12/28 05:35:42;;;;;;;5.93;4.90;;;8.90;99.90;;;;;;5093917;28;20448;-78
2023/12/28 05:38:11;;;;;;;5.03;4.20;;;8.90;99.90;;;;;;5093845;28;20897;-78
2023/12/28 05:40:39;;;;;;;5.40;4.40;;;8.90;99.90;;;;;;5093744;28;20444;-77
2023/12/28 05:43:07;;;;;;;4.40;4.00;;;8.90;99.90;;;;;;5093839;28;20459;-77
2023/12/28 05:45:35;;;;;;;6.20;5.00;;;8.90;99.90;;;;;;5093324;28;20456;-77
2023/12/28 05:48:05;;;;;;;6.00;4.57;;;8.90;99.90;;;;;;5093312;28;20988;-77
2023/12/28 05:50:33;;;;;;;5.70;5.07;;;8.90;99.90;;;;;;5094574;28;20468;-77
2023/12/28 05:53:03;;;;;;;5.77;4.50;;;8.90;99.90;;;;;;5094287;28;20436;-77
2023/12/28 05:55:31;;;;;;;6.03;4.50;;;8.90;99.90;;;;;;5094725;28;20441;-78
2023/12/28 05:58:00;;;;;;;4.47;4.00;;;8.90;99.90;;;;;;5093783;28;20464;-78
2023/12/28 06:00:28;;;;;;;5.47;4.20;;;8.90;99.90;;;;;;5093222;28;20440;-76
2023/12/28 06:02:57;;;;;;;6.23;4.30;;;8.90;99.90;;;;;;5092795;28;20441;-78
2023/12/28 06:05:25;;;;;;;6.00;4.70;;;8.90;99.90;;;;;;5093656;28;20459;-77
2023/12/28 06:07:53;;;;;;;4.50;4.10;;;9.00;99.90;;;;;;5094241;28;20460;-78
2023/12/28 06:10:24;;;;;;;6.73;4.73;;;9.00;99.90;;;;;;5093419;28;20571;-78
2023/12/28 06:12:52;;;;;;;6.70;4.10;;;9.00;99.90;;;;;;5093197;28;20913;-77
2023/12/28 06:15:20;;;;;;;6.07;4.10;;;9.00;99.90;;;;;;5093352;28;20458;-77
2023/12/28 06:17:49;;;;;;;6.20;4.43;;;9.10;99.90;;;;;;5093780;28;20468;-78
2023/12/28 06:20:17;;;;;;;6.03;4.20;;;9.10;99.90;;;;;;5094637;28;20850;-77
2023/12/28 06:22:48;;;;;;;6.60;4.13;;;9.10;99.90;;;;;;5093155;28;20472;-78
2023/12/28 06:25:17;;;;;;;5.80;4.70;;;9.10;99.90;;;;;;5093438;28;20803;-78
2023/12/28 06:27:46;;;;;;;5.13;4.00;;;9.10;99.90;;;;;;5095559;28;20448;-78
2023/12/28 06:30:15;;;;;;;5.80;4.53;;;9.20;99.90;;;;;;5094805;28;20563;-76
2023/12/28 06:32:44;;;;;;;6.30;4.50;;;9.10;99.90;;;;;;5094058;28;20443;-78
2023/12/28 06:35:12;;;;;;;7.37;4.83;;;9.20;99.90;;;;;;5094825;28;20464;-78
2023/12/28 06:37:40;;;;;;;5.53;4.10;;;9.20;99.90;;;;;;5093134;28;20464;-76
2023/12/28 06:40:10;;;;;;;5.43;3.43;;;9.30;99.90;;;;;;5093342;28;20432;-78
2023/12/28 06:42:38;;;;;;;6.80;3.90;;;9.30;99.90;;;;;;5093705;28;20444;-77
2023/12/28 06:45:09;;;;;;;5.87;3.70;;;9.30;99.90;;;;;;5093021;28;20448;-77
2023/12/28 06:47:37;;;;;;;6.90;4.20;;;9.40;99.90;;;;;;5093266;28;20460;-78
2023/12/28 06:50:07;;;;;;;6.60;3.93;;;9.40;99.90;;;;;;5093423;28;20472;-77
2023/12/28 06:52:35;;;;;;;6.17;4.03;;;9.40;99.90;;;;;;5093013;28;20448;-77
2023/12/28 06:55:04;;;;;;;6.33;4.33;;;9.40;99.90;;;;;;5093998;28;20436;-77
2023/12/28 06:57:32;;;;;;;7.63;4.20;;;9.50;99.90;;;;;;5094214;28;20546;-78
2023/12/28 07:00:02;;;;;;;7.20;3.93;;;9.50;99.90;;;;;;5093627;28;20448;-78
2023/12/28 07:02:32;;;;;;;6.80;4.17;;;9.50;99.90;;;;;;5095315;28;20792;-77
2023/12/28 07:05:00;;;;;;;7.90;3.90;;;9.60;99.90;;;;;;5097841;28;20523;-77
2023/12/28 07:07:29;;;;;;;9.23;4.33;;;9.60;99.90;;;;;;5096415;28;20464;-77
2023/12/28 07:09:57;;;;;;;6.40;3.40;;;9.60;99.90;;;;;;5096349;28;20460;-77
2023/12/28 07:12:26;;;;;;;5.70;3.70;;;9.70;99.90;;;;;;5097057;28;20941;-77
2023/12/28 07:14:54;;;;;;;6.27;4.30;;;9.70;99.90;;;;;;5097967;28;20480;-77
2023/12/28 07:17:22;;;;;;;7.07;3.40;;;9.70;99.90;;;;;;5098188;28;20839;-77
2023/12/28 07:19:52;;;;;;;8.17;3.70;;;9.80;99.90;;;;;;5096561;28;20452;-78
2023/12/28 07:22:20;;;;;;;6.00;3.53;;;9.80;99.90;;;;;;5097534;28;20814;-78
2023/12/28 07:24:49;;;;;;;8.10;4.03;;;9.80;99.90;;;;;;5097508;28;20455;-78
2023/12/28 07:27:17;;;;;;;9.17;3.50;;;9.90;99.90;;;;;;5096616;28;20981;-78
2023/12/28 07:29:45;;;;;;;9.23;4.13;;;9.90;99.90;;;;;;5097148;28;20901;-78
2023/12/28 07:32:14;;;;;;;8.40;3.80;;;9.90;99.90;;;;;;5096312;28;20436;-77
2023/12/28 07:34:42;;;;;;;9.80;4.57;;;9.90;99.90;;;;;;5097506;28;20509;-78
2023/12/28 07:37:12;;;;;;;9.33;3.90;;;10.00;99.90;;;;;;5095986;28;20981;-77
2023/12/28 07:39:41;;;;;;;6.67;3.30;;;10.00;99.90;;;;;;5095911;28;20452;-76
2023/12/28 07:42:09;;;;;;;6.33;3.27;;;10.00;99.90;;;;;;5096509;28;20446;-78
2023/12/28 07:44:37;;;;;;;9.13;3.20;;;10.10;99.90;;;;;;5097674;28;20442;-78
2023/12/28 07:47:06;;;;;;;7.23;3.50;;;10.10;99.90;;;;;;5097221;28;20541;-77
2023/12/28 07:49:37;;;;;;;6.47;3.40;;;10.10;99.90;;;;;;5096364;28;20835;-76
2023/12/28 07:52:06;;;;;;;10.87;3.57;;;10.10;99.90;;;;;;5097214;28;20440;-77
2023/12/28 07:54:36;;;;;;;8.30;3.27;;;10.20;99.90;;;;;;5095925;28;20436;-77
2023/12/28 07:57:05;;;;;;;8.17;3.60;;;10.20;99.90;;;;;;5097784;28;20517;-78
2023/12/28 07:59:33;;;;;;;11.60;3.60;;;10.20;99.90;;;;;;5096376;28;20454;-78
2023/12/28 08:02:01;;;;;;;7.03;3.43;;;10.20;99.90;;;;;;5096532;28;20852;-78
2023/12/28 08:04:29;;;;;;;9.17;3.63;;;10.30;99.90;;;;;;5096875;28;20547;-78
2023/12/28 08:06:58;;;;;;;8.70;3.53;;;10.30;99.90;;;;;;5096301;28;20470;-79
2023/12/28 08:09:27;;;;;;;10.77;3.67;;;10.30;99.90;;;;;;5096216;28;20868;-78
2023/12/28 08:11:57;;;;;;;8.03;3.30;;;10.40;99.90;;;;;;5098398;28;20853;-79
2023/12/28 08:14:25;;;;;;;8.70;3.67;;;10.40;99.90;;;;;;5097276;28;20436;-79
2023/12/28 08:16:53;;;;;;;6.30;2.60;;;10.40;99.90;;;;;;5096818;28;20475;-78
2023/12/28 08:19:21;;;;;;;8.27;3.37;;;10.40;99.90;;;;;;5096906;28;20444;-77
2023/12/28 08:21:50;;;;;;;6.03;3.00;;;10.40;99.90;;;;;;5098977;28;20979;-79
2023/12/28 08:24:18;;;;;;;8.37;3.37;;;10.40;99.90;;;;;;5097719;28;20937;-80
2023/12/28 08:26:47;;;;;;;6.77;3.23;;;10.50;99.90;;;;;;5096654;28;20521;-79
2023/12/28 08:29:17;;;;;;;6.23;3.40;;;10.50;99.90;;;;;;5099027;28;20433;-78
2023/12/28 08:31:46;;;;;;;10.10;3.97;;;10.50;99.90;;;;;;5098122;28;20903;-79
2023/12/28 08:34:19;;;;;;;7.40;2.77;;;10.50;99.90;;;;;;5098265;28;20440;-77
2023/12/28 08:36:47;;;;;;;8.20;3.27;;;10.60;99.90;;;;;;5095977;28;20464;-79
2023/12/28 08:39:15;;;;;;;7.10;2.77;;;10.60;99.90;;;;;;5097783;28;20435;-78
2023/12/28 08:41:44;;;;;;;8.60;3.20;;;10.60;99.90;;;;;;5095810;28;20958;-77
2023/12/28 08:44:12;;;;;;;8.97;3.57;;;10.60;99.90;;;;;;5095318;28;20448;-76
2023/12/28 08:46:42;;;;;;;10.33;3.87;;;10.60;99.90;;;;;;5094798;28;20497;-77
2023/12/28 08:49:10;;;;;;;8.30;3.33;;;10.70;99.90;;;;;;5095423;28;20502;-76
2023/12/28 08:51:38;;;;;;;7.37;2.87;;;10.70;99.90;;;;;;5096844;28;20980;-79
2023/12/28 08:54:11;;;;;;;6.37;3.00;;;10.70;99.90;;;;;;5096385;28;20440;-77
2023/12/28 08:56:40;;;;;;;10.50;3.60;;;10.70;99.90;;;;;;5094733;28;20899;-77
2023/12/28 08:59:08;;;;;;;9.03;3.50;;;10.80;99.90;;;;;;5095386;28;20470;-78
2023/12/28 09:01:37;;;;;;;10.10;3.30;;;10.80;99.90;;;;;;5094778;28;20497;-77
2023/12/28 09:04:06;;;;;;;7.77;3.23;;;10.80;99.90;;;;;;5096927;28;20428;-78
2023/12/28 09:06:35;;;;;;;8.10;3.60;;;10.80;99.90;;;;;;5094931;28;20495;-78
2023/12/28 09:09:04;;;;;;;8.63;3.53;;;10.90;99.90;;;;;;5095141;28;21004;-78
2023/12/28 09:11:32;;;;;;;8.10;3.10;;;10.90;99.90;;;;;;5094568;28;20832;-78
2023/12/28 09:14:00;;;;;;;8.90;3.80;;;10.90;99.90;;;;;;5095066;28;20459;-78
2023/12/28 09:16:29;;;;;;;7.37;3.60;;;10.90;99.90;;;;;;5095587;28;20886;-79
2023/12/28 09:18:57;;;;;;;8.50;3.23;;;10.90;99.90;;;;;;5095042;28;20945;-78
2023/12/28 09:21:27;;;;;;;9.57;3.77;;;10.90;99.90;;;;;;5097113;28;20444;-77
2023/12/28 09:23:56;;;;;;;6.17;2.80;;;10.90;99.90;;;;;;5095358;28;20447;-79
2023/12/28 09:26:24;;;;;;;8.43;3.80;;;11.00;99.90;;;;;;5095076;28;20997;-79
2023/12/28 09:28:52;;;;;;;5.73;3.33;;;11.00;99.90;;;;;;5095771;28;20451;-77
2023/12/28 09:31:21;;;;;;;8.10;3.37;;;11.00;99.90;;;;;;5094180;28;20522;-79
2023/12/28 09:33:49;;;;;;;8.77;3.07;;;11.00;99.90;;;;;;5095313;28;20975;-77
2023/12/28 09:36:18;;;;;;;7.30;3.50;;;11.00;99.90;;;;;;5094467;28;20475;-78
2023/12/28 09:38:47;;;;;;;6.33;3.20;;;11.00;99.90;;;;;;5095119;28;20448;-77
2023/12/28 09:41:17;;;;;;;7.57;3.50;;;11.00;99.90;;;;;;5094937;28;20441;-77
2023/12/28 09:43:54;;;;;;;10.50;4.10;;;11.10;99.90;;;;;;5094083;28;20535;-78
2023/12/28 09:46:26;;;;;;;9.07;3.90;;;11.10;99.90;;;;;;5095793;28;20517;-77
2023/12/28 09:48:56;;;;;;;9.83;3.60;;;11.10;99.90;;;;;;5095267;28;20539;-78
2023/12/28 09:51:26;;;;;;;6.53;3.07;;;11.10;99.90;;;;;;5094949;28;20483;-76
2023/12/28 09:53:56;;;;;;;12.50;3.80;;;11.10;99.90;;;;;;5094812;28;20444;-77
2023/12/28 09:56:25;;;;;;;10.70;3.67;;;11.10;99.90;;;;;;5096735;28;20474;-80
2023/12/28 09:58:58;;;;;;;8.33;3.80;;;11.10;99.90;;;;;;5097814;28;20425;-79
2023/12/28 10:01:27;;;;;;;9.90;4.00;;;11.10;99.90;;;;;;5097424;28;20495;-79
2023/12/28 10:03:55;;;;;;;7.67;3.40;;;11.20;99.90;;;;;;5097218;28;20842;-79
2023/12/28 10:06:24;;;;;;;10.03;3.27;;;11.20;99.90;;;;;;5097012;28;20500;-78
2023/12/28 10:08:52;;;;;;;13.27;3.60;;;11.20;99.90;;;;;;5095664;28;20453;-79
2023/12/28 10:11:23;;;;;;;7.37;3.70;;;11.30;99.90;;;;;;5097159;28;20467;-79
2023/12/28 10:13:52;;;;;;;10.07;3.53;;;11.30;99.90;;;;;;5096651;28;20443;-77
2023/12/28 10:16:20;;;;;;;8.37;2.80;;;11.30;99.90;;;;;;5095411;28;20472;-80
2023/12/28 10:18:49;;;;;;;10.60;3.93;;;11.30;99.90;;;;;;5094694;28;20440;-78
2023/12/28 10:21:17;;;;;;;7.30;3.37;;;11.30;99.90;;;;;;5095900;28;20443;-77
2023/12/28 10:23:46;;;;;;;20.03;4.93;;;11.30;99.90;;;;;;5096297;28;20505;-80
2023/12/28 10:26:14;;;;;;;9.37;3.60;;;11.30;99.90;;;;;;5097695;28;20440;-80
2023/12/28 10:28:44;;;;;;;9.90;3.70;;;11.30;99.90;;;;;;5095755;28;20448;-79
2023/12/28 10:31:13;;;;;;;11.53;4.57;;;11.30;99.90;;;;;;5098194;28;20795;-79
2023/12/28 10:33:41;;;;;;;10.23;3.90;;;11.30;99.90;;;;;;5097950;28;20534;-80
2023/12/28 10:36:11;;;;;;;10.23;3.40;;;11.30;99.90;;;;;;5096493;28;20551;-79
2023/12/28 10:38:40;;;;;;;10.90;3.50;;;11.40;99.90;;;;;;5099342;28;20452;-79
2023/12/28 10:41:11;;;;;;;7.80;3.20;;;11.40;99.90;;;;;;5099455;28;20449;-78
2023/12/28 10:43:47;;;;;;;7.23;3.47;;;11.40;99.90;;;;;;5098842;28;20450;-77
2023/12/28 10:46:26;;;;;;;18.27;4.27;;;11.40;99.90;;;;;;5099195;28;20483;-78
2023/12/28 10:48:57;;;;;;;8.00;3.03;;;11.40;99.90;;;;;;5098960;28;20531;-79
2023/12/28 10:51:29;;;;;;;6.97;3.30;;;11.40;99.90;;;;;;5097895;28;20845;-80
2023/12/28 10:54:07;;;;;;;13.77;4.10;;;11.40;99.90;;;;;;5100308;28;20448;-79
2023/12/28 10:56:42;;;;;;;8.97;3.27;;;11.40;99.90;;;;;;5098742;28;20472;-78
2023/12/28 10:59:20;;;;;;;11.40;3.83;;;11.40;99.90;;;;;;5100863;28;20434;-80
2023/12/28 11:01:52;;;;;;;8.53;4.13;;;11.50;99.90;;;;;;5099019;28;20452;-79
2023/12/28 11:04:32;;;;;;;6.40;3.10;;;11.50;99.90;;;;;;5099473;28;20440;-79
2023/12/28 11:07:02;;;;;;;9.60;3.97;;;11.50;99.90;;;;;;5099423;28;20471;-77
2023/12/28 11:09:32;;;;;;;9.00;3.97;;;11.50;99.90;;;;;;5099391;28;20448;-78
2023/12/28 11:12:03;;;;;;;11.50;3.47;;;11.50;99.90;;;;;;5098897;28;20460;-78
2023/12/28 11:14:34;;;;;;;9.60;3.93;;;11.50;99.90;;;;;;5098512;28;20429;-78
2023/12/28 11:17:03;;;;;;;12.33;3.93;;;11.50;99.90;;;;;;5098256;28;20479;-79
2023/12/28 11:19:33;;;;;;;14.20;3.47;;;11.60;99.90;;;;;;5099202;28;20475;-77
2023/12/28 11:22:04;;;;;;;10.20;3.60;;;11.60;99.90;;;;;;5098828;28;20483;-78
2023/12/28 11:24:33;;;;;;;11.50;3.80;;;11.60;99.90;;;;;;5098897;28;20448;-80
2023/12/28 11:27:04;;;;;;;10.90;4.00;;;11.60;99.90;;;;;;5097919;28;20551;-77
2023/12/28 11:29:37;;;;;;;10.53;3.60;;;11.60;99.90;;;;;;5100345;28;20454;-79
2023/12/28 11:32:06;;;;;;;9.90;3.40;;;11.60;99.90;;;;;;5098358;28;20487;-78
2023/12/28 11:34:34;;;;;;;12.70;4.17;;;11.60;99.90;;;;;;5097855;28;20440;-76
2023/12/28 11:37:07;;;;;;;10.70;4.47;;;11.60;99.90;;;;;;5097474;28;20479;-77
2023/12/28 11:39:37;;;;;;;12.03;3.80;;;11.60;99.90;;;;;;5099666;28;20424;-78
2023/12/28 11:42:08;;;;;;;9.47;3.50;;;11.60;99.90;;;;;;5097907;28;20447;-77
2023/12/28 11:44:41;;;;;;;10.17;4.47;;;11.60;99.90;;;;;;5098620;28;20455;-76
2023/12/28 11:47:13;;;;;;;11.70;3.70;;;11.60;99.90;;;;;;5097015;28;20482;-78
2023/12/28 11:49:42;;;;;;;15.07;4.07;;;11.60;99.90;;;;;;5099828;28;20512;-78
2023/12/28 11:52:12;;;;;;;11.50;4.47;;;11.60;99.90;;;;;;5097022;28;20460;-78
2023/12/28 11:54:49;;;;;;;9.37;4.20;;;11.60;99.90;;;;;;5096207;28;20436;-77
2023/12/28 11:57:18;;;;;;;13.43;4.07;;;11.60;99.90;;;;;;5096435;28;20496;-78
2023/12/28 11:59:49;;;;;;;12.13;4.10;;;11.60;99.90;;;;;;5097425;28;20469;-79
2023/12/28 12:02:18;;;;;;;12.70;4.37;;;11.60;99.90;;;;;;5097583;28;20432;-78
2023/12/28 12:04:46;;;;;;;9.67;3.30;;;11.60;99.90;;;;;;5096728;28;20444;-79
2023/12/28 12:07:15;;;;;;;14.47;3.70;;;11.50;99.90;;;;;;5095543;28;20494;-77
2023/12/28 12:09:44;;;;;;;9.83;4.40;;;11.50;99.90;;;;;;5097626;28;20796;-77
2023/12/28 12:12:12;;;;;;;9.40;3.80;;;11.60;99.90;;;;;;5098187;28;20460;-78
2023/12/28 12:14:41;;;;;;;13.63;3.87;;;11.50;99.90;;;;;;5096112;28;20799;-78
2023/12/28 12:17:12;;;;;;;11.77;4.10;;;11.50;99.90;;;;;;5096760;28;21057;-78
2023/12/28 12:19:40;;;;;;;14.30;4.50;;;11.50;99.90;;;;;;5098928;28;20417;-78
2023/12/28 12:22:09;;;;;;;9.80;4.40;;;11.60;99.90;;;;;;5096305;28;20449;-77
2023/12/28 12:24:38;;;;;;;9.03;3.70;;;11.60;99.90;;;;;;5095971;28;21090;-77
2023/12/28 12:27:06;;;;;;;9.80;3.97;;;11.60;99.90;;;;;;5097451;28;20456;-76
2023/12/28 12:29:34;;;;;;;9.23;4.47;;;11.50;99.90;;;;;;5096445;28;20458;-77
2023/12/28 12:32:03;;;;;;;12.07;4.20;;;11.60;99.90;;;;;;5096191;28;20482;-78
2023/12/28 12:34:34;;;;;;;11.17;4.40;;;11.60;99.90;;;;;;5096472;28;20459;-78
2023/12/28 12:37:02;;;;;;;23.83;4.30;;;11.60;99.90;;;;;;5096917;28;20463;-77
2023/12/28 12:39:32;;;;;;;9.23;3.90;;;11.50;99.90;;;;;;5095743;28;20610;-78
2023/12/28 12:42:00;;;;;;;12.40;4.27;;;11.60;99.90;;;;;;5096026;28;20497;-78
2023/12/28 12:44:29;;;;;;;10.57;3.90;;;11.60;99.90;;;;;;5096053;28;20813;-79
2023/12/28 12:47:00;;;;;;;8.80;4.20;;;11.60;99.90;;;;;;5095797;28;21088;-77
2023/12/28 12:49:29;;;;;;;10.73;4.10;;;11.50;99.90;;;;;;5096095;28;20445;-79
2023/12/28 12:51:59;;;;;;;11.47;4.40;;;11.50;99.90;;;;;;5095257;28;21084;-78
2023/12/28 12:54:31;;;;;;;9.57;3.60;;;11.50;99.90;;;;;;5095983;28;20436;-78
2023/12/28 12:57:00;;;;;;;11.57;3.60;;;11.50;99.90;;;;;;5097034;28;20478;-78
2023/12/28 12:59:28;;;;;;;10.47;3.60;;;11.50;99.90;;;;;;5095852;28;20440;-79